Blackburn, Louisiana
Current Conditions -  °F | °C
As of 12:36 AM on Monday 24 Nov 2014 (Local Time) from KMNE Reporting Station
Clear Clear  
Wind Chill: 57°   Ceiling: Unl
Heat Index: 57°   Visibility: 10mi
Dew Point: 46°   Wind: 10mph
Humidity: 67%   Direction: 270°W
Pressure: 29.68"   Gusts: 22mph
Location:  32.9128°N, 93.0286°W
Report Text: KMNE 240636Z AUTO 27009G19KT 10SM CLR 14/08 A2968 RMK AO2
Loading
Personal Weather Stations






























Interactive Weather Map New forecast layout! Learn more

10-Day Weather Forecast

Advertisements
Track Severe Weather on mobile